createdAt,value
2023-04-14T00:00:00.509Z,99488.50
2023-04-14T00:02:49.209Z,99487.91
2023-04-14T00:05:38.020Z,99479.13
2023-04-14T00:08:26.847Z,99481.34
2023-04-14T00:11:16.863Z,99467.63
2023-04-14T00:14:05.984Z,99468.06
2023-04-14T00:16:54.663Z,99469.09
2023-04-14T00:19:43.286Z,99467.47
2023-04-14T00:22:31.927Z,99465.84
2023-04-14T00:25:20.541Z,99471.16
2023-04-14T00:28:10.496Z,99466.88
2023-04-14T00:30:59.356Z,99475.47
2023-04-14T00:33:48.379Z,99475.66
2023-04-14T00:36:37.210Z,99472.78
2023-04-14T00:39:25.823Z,99467.03
2023-04-14T00:42:14.400Z,99468.25
2023-04-14T00:45:04.503Z,99466.63
2023-04-14T00:47:53.235Z,99463.75
2023-04-14T00:50:41.964Z,99468.50
2023-04-14T00:53:30.545Z,99467.91
2023-04-14T00:56:19.236Z,99466.63
2023-04-14T00:59:08.647Z,99467.91
2023-04-14T01:01:58.888Z,99476.91
2023-04-14T01:04:54.297Z,99482.22
2023-04-14T01:07:43.790Z,99485.94
2023-04-14T01:10:36.451Z,99482.63
2023-04-14T01:13:33.697Z,99485.09
2023-04-14T01:16:28.825Z,99484.69
2023-04-14T01:19:34.297Z,99475.28
2023-04-14T01:22:24.095Z,99485.53
2023-04-14T01:25:30.876Z,99480.94
2023-04-14T01:28:29.840Z,99486.28
2023-04-14T01:31:26.142Z,99488.78
2023-04-14T01:34:17.655Z,99501.91
2023-04-14T01:37:08.874Z,99505.63
2023-04-14T01:40:02.146Z,99498.66
2023-04-14T01:42:54.883Z,99505.03
2023-04-14T01:45:47.030Z,99488.44
2023-04-14T01:48:37.882Z,99496.22
2023-04-14T01:51:28.211Z,99507.88
2023-04-14T01:54:17.871Z,99510.56
2023-04-14T01:57:07.595Z,99496.22
2023-04-14T01:59:58.652Z,99498.50
2023-04-14T02:02:48.537Z,99495.41
2023-04-14T02:05:40.260Z,99483.69
2023-04-14T02:08:29.976Z,99489.91
2023-04-14T02:11:20.245Z,99481.47
2023-04-14T02:14:09.662Z,99474.50
2023-04-14T02:16:59.286Z,99466.72
2023-04-14T02:19:49.412Z,99472.88
2023-04-14T02:22:39.382Z,99466.28
2023-04-14T02:25:32.098Z,99469.78
2023-04-14T02:28:22.201Z,99473.69
2023-04-14T02:31:11.908Z,99474.50
2023-04-14T02:34:02.320Z,99466.50
2023-04-14T02:36:54.471Z,99472.25
2023-04-14T02:39:45.559Z,99469.19
2023-04-14T02:42:36.638Z,99465.91
2023-04-14T02:45:27.793Z,99469.19
2023-04-14T02:48:18.045Z,99473.69
2023-04-14T02:51:07.768Z,99474.91
2023-04-14T02:53:56.792Z,99476.19
2023-04-14T02:56:46.900Z,99489.28
2023-04-14T02:59:36.407Z,99488.06
2023-04-14T03:02:25.635Z,99491.34
2023-04-14T03:05:14.523Z,99482.66
2023-04-14T03:08:04.589Z,99485.34
2023-04-14T03:10:53.455Z,99484.72
2023-04-14T03:13:44.208Z,99492.34
2023-04-14T03:16:33.837Z,99488.03
2023-04-14T03:19:25.303Z,99488.25
2023-04-14T03:22:14.279Z,99490.50
2023-04-14T03:25:02.876Z,99477.38
2023-04-14T03:27:52.618Z,99482.31
2023-04-14T03:30:46.328Z,99474.72
2023-04-14T03:33:35.258Z,99476.75
2023-04-14T03:36:24.122Z,99468.34
2023-04-14T03:39:14.542Z,99467.53
2023-04-14T03:42:03.577Z,99468.75
2023-04-14T03:44:54.337Z,99477.78
2023-04-14T03:47:44.380Z,99482.72
2023-04-14T03:50:36.049Z,99467.53
2023-04-14T03:53:24.866Z,99477.19
2023-04-14T03:56:14.470Z,99458.91
2023-04-14T03:59:03.252Z,99452.78
2023-04-14T04:01:52.900Z,99442.94
2023-04-14T04:04:43.089Z,99442.94
2023-04-14T04:07:32.762Z,99454.78
2023-04-14T04:10:21.930Z,99454.13
2023-04-14T04:13:12.689Z,99449.84
2023-04-14T04:16:01.295Z,99455.41
2023-04-14T04:18:50.694Z,99449.94
2023-04-14T04:21:42.261Z,99456.00
2023-04-14T04:24:33.897Z,99450.44
2023-04-14T04:27:28.118Z,99451.56
2023-04-14T04:30:18.866Z,99457.75
2023-04-14T04:33:07.915Z,99466.97
2023-04-14T04:35:57.343Z,99475.19
2023-04-14T04:38:49.832Z,99476.81
2023-04-14T04:41:38.459Z,99471.91
2023-04-14T04:44:27.077Z,99473.16
2023-04-14T04:47:15.750Z,99476.50
2023-04-14T04:50:04.371Z,99476.50
2023-04-14T04:52:52.957Z,99481.00
2023-04-14T04:55:44.052Z,99488.78
2023-04-14T04:58:32.659Z,99489.22
2023-04-14T05:01:21.556Z,99491.84
2023-04-14T05:04:10.470Z,99494.84
2023-04-14T05:06:59.067Z,99483.38
2023-04-14T05:09:47.702Z,99497.72
2023-04-14T05:12:37.653Z,99496.16
2023-04-14T05:15:26.624Z,99501.47
2023-04-14T05:18:15.577Z,99492.84
2023-04-14T05:21:04.830Z,99498.97
2023-04-14T05:23:53.407Z,99488.31
2023-04-14T05:26:51.785Z,99483.03
2023-04-14T05:29:48.314Z,99483.03
2023-04-14T05:32:37.337Z,99495.75
2023-04-14T05:35:26.649Z,99497.81
2023-04-14T05:38:15.500Z,99509.72
2023-04-14T05:41:04.108Z,99514.84
2023-04-14T05:43:52.735Z,99515.88
2023-04-14T05:46:42.792Z,99506.22
2023-04-14T05:49:31.607Z,99503.16
2023-04-14T05:52:20.541Z,99502.75
2023-04-14T05:55:09.687Z,99498.63
2023-04-14T05:57:58.288Z,99509.69
2023-04-14T06:00:47.140Z,99513.38
2023-04-14T06:03:40.223Z,99510.72
2023-04-14T06:06:29.350Z,99507.59
2023-04-14T06:09:17.968Z,99506.81
2023-04-14T06:12:06.625Z,99505.94
2023-04-14T06:14:55.520Z,99501.88
2023-04-14T06:17:47.385Z,99500.66
2023-04-14T06:20:38.122Z,99500.66
2023-04-14T06:23:27.069Z,99497.53
2023-04-14T06:26:15.678Z,99483.03
2023-04-14T06:29:07.378Z,99488.94
2023-04-14T06:31:56.438Z,99490.16
2023-04-14T06:34:45.102Z,99478.88
2023-04-14T06:37:35.041Z,99482.59
2023-04-14T06:40:26.455Z,99477.25
2023-04-14T06:43:15.243Z,99466.44
2023-04-14T06:46:03.985Z,99471.16
2023-04-14T06:48:52.589Z,99472.34
2023-04-14T06:51:41.256Z,99470.88
2023-04-14T06:54:32.870Z,99465.41
2023-04-14T06:57:21.494Z,99465.41
2023-04-14T07:00:11.362Z,99460.00
2023-04-14T07:03:00.157Z,99456.50
2023-04-14T07:05:48.844Z,99462.13
2023-04-14T07:08:38.156Z,99455.31
2023-04-14T07:11:29.741Z,99454.09
2023-04-14T07:14:18.440Z,99456.97
2023-04-14T07:17:06.982Z,99445.69
2023-04-14T07:19:56.818Z,99452.25
2023-04-14T07:22:45.579Z,99454.72
2023-04-14T07:25:36.722Z,99462.09
2023-04-14T07:28:28.113Z,99462.53
2023-04-14T07:31:16.973Z,99456.38
2023-04-14T07:34:05.833Z,99451.03
2023-04-14T07:36:54.395Z,99467.66
2023-04-14T07:39:43.388Z,99470.56
2023-04-14T07:42:31.944Z,99456.38
2023-04-14T07:45:22.632Z,99470.28
2023-04-14T07:48:11.339Z,99471.50
2023-04-14T07:51:02.054Z,99471.91
2023-04-14T07:53:52.309Z,99480.56
2023-04-14T07:56:41.018Z,99479.75
2023-04-14T07:59:31.342Z,99479.13
2023-04-14T08:02:21.654Z,99473.75
2023-04-14T08:05:10.659Z,99475.84
2023-04-14T08:07:59.231Z,99476.44
2023-04-14T08:10:47.863Z,99470.72
2023-04-14T08:13:36.470Z,99475.63
2023-04-14T08:16:25.290Z,99467.03
2023-04-14T08:19:15.391Z,99459.41
2023-04-14T08:22:03.960Z,99457.41
2023-04-14T08:24:52.649Z,99457.25
2023-04-14T08:27:41.208Z,99464.19
2023-04-14T08:30:29.922Z,99458.88
2023-04-14T08:33:18.493Z,99458.88
2023-04-14T08:36:08.955Z,99457.25
2023-04-14T08:38:57.672Z,99463.38
2023-04-14T08:41:46.348Z,99456.81
2023-04-14T08:44:35.022Z,99457.66
2023-04-14T08:47:24.603Z,99462.97
2023-04-14T08:50:15.392Z,99465.22
2023-04-14T08:53:08.193Z,99450.44
2023-04-14T08:55:58.327Z,99455.75
2023-04-14T08:58:48.313Z,99455.16
2023-04-14T09:01:37.688Z,99446.56
2023-04-14T09:04:27.344Z,99448.22
2023-04-14T09:07:16.116Z,99438.38
2023-04-14T09:10:07.415Z,99436.38
2023-04-14T09:12:56.020Z,99439.44
2023-04-14T09:15:44.901Z,99439.59
2023-04-14T09:18:36.370Z,99434.53
2023-04-14T09:21:30.221Z,99433.06
2023-04-14T09:24:36.046Z,99431.88
2023-04-14T09:27:26.219Z,99435.13
2023-04-14T09:30:15.618Z,99432.25
2023-04-14T09:33:07.179Z,99436.31
2023-04-14T09:35:56.325Z,99433.88
2023-04-14T09:38:45.096Z,99433.50
2023-04-14T09:41:34.018Z,99437.19
2023-04-14T09:44:24.043Z,99446.97
2023-04-14T09:47:16.239Z,99449.94
2023-04-14T09:50:05.778Z,99452.75
2023-04-14T09:52:54.526Z,99448.63
2023-04-14T09:55:47.276Z,99446.97
2023-04-14T09:58:36.907Z,99447.84
2023-04-14T10:01:30.796Z,99449.94
2023-04-14T10:04:24.157Z,99449.09
2023-04-14T10:07:13.037Z,99439.88
2023-04-14T10:10:08.637Z,99437.59
2023-04-14T10:12:57.503Z,99436.00
2023-04-14T10:15:46.663Z,99435.56
2023-04-14T10:18:36.785Z,99432.28
2023-04-14T10:21:26.193Z,99426.94
2023-04-14T10:24:15.103Z,99422.66
2023-04-14T10:27:05.050Z,99416.28
2023-04-14T10:29:54.221Z,99413.66
2023-04-14T10:32:44.106Z,99417.59
2023-04-14T10:35:39.143Z,99417.75
2023-04-14T10:38:39.653Z,99415.09
2023-04-14T10:41:28.617Z,99421.63
2023-04-14T10:44:24.791Z,99421.22
2023-04-14T10:47:25.088Z,99417.13
2023-04-14T10:50:15.216Z,99420.63
2023-04-14T10:53:09.372Z,99415.09
2023-04-14T10:55:58.072Z,99422.09
2023-04-14T10:58:56.372Z,99415.91
2023-04-14T11:01:45.067Z,99417.16
2023-04-14T11:04:33.868Z,99414.50
2023-04-14T11:07:22.938Z,99412.66
2023-04-14T11:10:30.414Z,99408.56
2023-04-14T11:13:19.436Z,99404.44
2023-04-14T11:16:09.037Z,99399.09
2023-04-14T11:18:57.674Z,99396.88
2023-04-14T11:21:50.952Z,99399.16
2023-04-14T11:24:39.546Z,99392.59
2023-04-14T11:27:29.521Z,99384.59
2023-04-14T11:30:20.371Z,99385.63
2023-04-14T11:33:08.981Z,99384.41
2023-04-14T11:35:58.348Z,99382.97
2023-04-14T11:38:47.226Z,99383.50
2023-04-14T11:41:35.952Z,99382.69
2023-04-14T11:44:26.468Z,99383.50
2023-04-14T11:50:04.873Z,99368.94
2023-04-14T11:52:55.098Z,99373.56
2023-04-14T11:55:45.211Z,99372.91
2023-04-14T11:58:33.879Z,99362.91
2023-04-14T12:01:25.521Z,99362.13
2023-04-14T12:04:14.220Z,99359.63
2023-04-14T12:07:03.844Z,99351.84
2023-04-14T12:09:52.443Z,99345.16
2023-04-14T12:12:41.135Z,99353.06
2023-04-14T12:15:30.699Z,99349.41
2023-04-14T12:21:18.842Z,99349.59
2023-04-14T12:24:07.620Z,99351.69
2023-04-14T12:26:57.603Z,99344.31
2023-04-14T12:29:47.239Z,99342.66
2023-04-14T12:32:40.764Z,99344.06
2023-04-14T12:35:36.036Z,99337.72
2023-04-14T12:38:28.067Z,99334.00
2023-04-14T12:41:23.936Z,99333.25
2023-04-14T12:44:17.638Z,99328.91
2023-04-14T12:47:06.510Z,99328.06
2023-04-14T12:49:55.344Z,99325.53
2023-04-14T12:52:45.404Z,99326.13
2023-04-14T12:55:34.011Z,99326.13
2023-04-14T12:58:23.216Z,99331.84
2023-04-14T13:01:13.053Z,99319.94
2023-04-14T13:04:01.835Z,99321.56
2023-04-14T13:06:50.602Z,99329.72
2023-04-14T13:09:42.534Z,99322.59
2023-04-14T13:12:31.214Z,99318.31
2023-04-14T13:16:00.249Z,99311.75
2023-04-14T13:18:28.942Z,99313.44
2023-04-14T13:21:17.811Z,99307.03
2023-04-14T13:24:07.118Z,99309.97
2023-04-14T13:26:57.124Z,99310.78
2023-04-14T13:29:45.799Z,99305.59
2023-04-14T13:32:34.562Z,99302.78
2023-04-14T13:35:23.201Z,99305.00
2023-04-14T13:38:11.868Z,99295.56
2023-04-14T13:41:01.213Z,99294.88
2023-04-14T13:43:51.229Z,99300.44
2023-04-14T13:46:41.542Z,99295.31
2023-04-14T13:49:31.381Z,99289.78
2023-04-14T13:52:19.997Z,99293.44
2023-04-14T13:55:09.661Z,99299.31
2023-04-14T13:57:58.348Z,99296.31
2023-04-14T14:00:48.454Z,99289.94
2023-04-14T14:03:37.441Z,99290.53
2023-04-14T14:06:26.500Z,99298.72
2023-04-14T14:09:15.204Z,99290.53
2023-04-14T14:12:03.894Z,99292.03
2023-04-14T14:14:52.614Z,99297.50
2023-04-14T14:17:42.788Z,99305.09
2023-04-14T14:20:31.401Z,99307.16
2023-04-14T14:23:20.105Z,99299.03
2023-04-14T14:26:12.279Z,99301.31
2023-04-14T14:29:00.973Z,99304.22
2023-04-14T14:31:49.800Z,99310.34
2023-04-14T14:34:40.012Z,99306.22
2023-04-14T14:37:28.596Z,99311.09
2023-04-14T14:40:17.185Z,99311.97
2023-04-14T14:43:05.811Z,99313.19
2023-04-14T14:45:54.622Z,99306.41
2023-04-14T14:48:43.262Z,99307.03
2023-04-14T14:51:33.193Z,99316.72
2023-04-14T14:54:21.743Z,99314.50
2023-04-14T14:57:10.419Z,99310.78
2023-04-14T14:59:59.216Z,99313.25
2023-04-14T15:02:48.276Z,99314.25
2023-04-14T15:05:37.062Z,99317.53
2023-04-14T15:08:27.087Z,99313.19
2023-04-14T15:11:15.672Z,99313.06
2023-04-14T15:14:04.490Z,99314.56
2023-04-14T15:16:53.240Z,99318.34
2023-04-14T15:19:42.643Z,99318.19
2023-04-14T15:22:32.030Z,99316.91
2023-04-14T15:25:25.050Z,99316.78
2023-04-14T15:28:14.320Z,99321.59
2023-04-14T15:31:03.253Z,99325.06
2023-04-14T15:33:51.903Z,99321.53
2023-04-14T15:36:41.092Z,99323.63
2023-04-14T15:39:29.696Z,99319.91
2023-04-14T15:42:19.797Z,99317.59
2023-04-14T15:45:09.610Z,99320.63
2023-04-14T15:47:58.363Z,99319.44
2023-04-14T15:50:46.974Z,99320.47
2023-04-14T15:53:35.563Z,99323.16
2023-04-14T15:56:24.403Z,99323.03
2023-04-14T15:59:14.561Z,99328.94
2023-04-14T16:02:03.231Z,99323.78
2023-04-14T16:04:52.108Z,99333.56
2023-04-14T16:07:40.904Z,99337.25
2023-04-14T16:10:29.904Z,99338.97
2023-04-14T16:13:18.671Z,99329.41
2023-04-14T16:16:08.981Z,99325.09
2023-04-14T16:18:57.608Z,99323.25
2023-04-14T16:21:46.349Z,99325.44
2023-04-14T16:24:35.030Z,99321.56
2023-04-14T16:27:23.572Z,99325.97
2023-04-14T16:30:13.030Z,99318.97
2023-04-14T16:33:03.335Z,99320.63
2023-04-14T16:35:51.948Z,99320.34
2023-04-14T16:38:40.856Z,99318.28
2023-04-14T16:41:29.761Z,99318.28
2023-04-14T16:44:18.307Z,99320.19
2023-04-14T16:47:06.948Z,99321.16
2023-04-14T16:49:57.160Z,99315.97
2023-04-14T16:52:46.077Z,99319.63
2023-04-14T16:55:34.875Z,99323.25
2023-04-14T16:58:23.731Z,99321.63
2023-04-14T17:01:12.326Z,99324.16
2023-04-14T17:04:01.173Z,99330.09
2023-04-14T17:06:51.447Z,99323.78
2023-04-14T17:09:40.047Z,99328.84
2023-04-14T17:12:28.781Z,99308.34
2023-04-14T17:15:18.210Z,99323.31
2023-04-14T17:18:07.031Z,99315.53
2023-04-14T17:20:55.689Z,99317.00
2023-04-14T17:23:45.676Z,99328.97
2023-04-14T17:26:34.984Z,99322.31
2023-04-14T17:29:23.539Z,99321.53
2023-04-14T17:32:12.367Z,99317.97
2023-04-14T17:35:01.307Z,99321.09
2023-04-14T17:37:50.026Z,99321.53
2023-04-14T17:40:40.054Z,99327.75
2023-04-14T17:43:28.868Z,99326.13
2023-04-14T17:46:17.737Z,99326.88
2023-04-14T17:49:07.678Z,99323.41
2023-04-14T17:51:57.019Z,99326.28
2023-04-14T17:54:46.068Z,99314.72
2023-04-14T17:57:36.185Z,99323.94
2023-04-14T18:00:24.975Z,99312.00
2023-04-14T18:03:14.576Z,99321.78
2023-04-14T18:06:03.791Z,99313.69
2023-04-14T18:08:52.894Z,99326.28
2023-04-14T18:11:41.424Z,99325.88
2023-04-14T18:14:32.133Z,99326.66
2023-04-14T18:17:22.074Z,99331.22
2023-04-14T18:20:11.826Z,99327.22
2023-04-14T18:23:02.259Z,99321.78
2023-04-14T18:28:52.399Z,99320.00
2023-04-14T18:31:42.662Z,99323.25
2023-04-14T18:34:31.337Z,99326.03
2023-04-14T18:37:19.930Z,99321.88
2023-04-14T18:40:09.632Z,99319.81
2023-04-14T18:42:58.207Z,99324.50
2023-04-14T18:45:47.617Z,99320.25
2023-04-14T18:48:37.824Z,99328.78
2023-04-14T18:51:26.517Z,99331.59
2023-04-14T18:54:15.271Z,99328.69
2023-04-14T18:57:04.429Z,99323.94
2023-04-14T18:59:53.272Z,99330.69
2023-04-14T19:02:42.834Z,99323.59
2023-04-14T19:05:35.097Z,99325.59
2023-04-14T19:08:24.104Z,99327.44
2023-04-14T19:11:13.052Z,99325.25
2023-04-14T19:14:01.934Z,99323.16
2023-04-14T19:16:50.586Z,99318.63
2023-04-14T19:19:39.534Z,99311.56
2023-04-14T19:22:29.672Z,99313.59
2023-04-14T19:25:18.580Z,99309.44
2023-04-14T19:28:07.958Z,99306.53
2023-04-14T19:30:56.912Z,99303.28
2023-04-14T19:33:45.618Z,99307.34
2023-04-14T19:36:34.358Z,99303.16
2023-04-14T19:39:24.759Z,99308.50
2023-04-14T19:42:13.439Z,99309.34
2023-04-14T19:45:02.515Z,99303.53
2023-04-14T19:47:51.722Z,99308.97
2023-04-14T19:50:42.871Z,99297.34
2023-04-14T19:53:31.636Z,99297.50
2023-04-14T19:56:22.658Z,99301.44
2023-04-14T19:59:11.356Z,99299.91
2023-04-14T20:02:01.034Z,99296.78
2023-04-14T20:04:49.995Z,99297.72
2023-04-14T20:07:38.847Z,99303.63
2023-04-14T20:10:27.440Z,99294.47
2023-04-14T20:13:17.419Z,99293.41
2023-04-14T20:16:06.574Z,99291.78
2023-04-14T20:18:55.484Z,99294.69
2023-04-14T20:21:44.542Z,99283.88
2023-04-14T20:24:33.363Z,99292.22
2023-04-14T20:27:22.041Z,99280.47
2023-04-14T20:30:13.472Z,99284.78
2023-04-14T20:33:06.839Z,99275.66
2023-04-14T20:35:55.542Z,99273.53
2023-04-14T20:38:44.228Z,99280.81
2023-04-14T20:41:32.802Z,99269.56
2023-04-14T20:44:21.448Z,99268.84
2023-04-14T20:47:11.567Z,99268.13
2023-04-14T20:50:00.188Z,99264.09
2023-04-14T20:52:48.865Z,99268.41
2023-04-14T20:55:37.553Z,99263.91
2023-04-14T20:58:26.218Z,99261.94
2023-04-14T21:01:15.567Z,99259.56
2023-04-14T21:04:05.810Z,99250.66
2023-04-14T21:06:54.877Z,99243.88
2023-04-14T21:09:43.442Z,99247.41
2023-04-14T21:12:35.580Z,99252.63
2023-04-14T21:15:49.246Z,99252.31
2023-04-14T21:18:33.207Z,99256.03
2023-04-14T21:21:23.150Z,99253.03
2023-04-14T21:24:11.903Z,99250.63
2023-04-14T21:27:01.799Z,99261.81
2023-04-14T21:29:50.558Z,99262.72
2023-04-14T21:32:39.882Z,99266.88
2023-04-14T21:35:28.633Z,99257.06
2023-04-14T21:38:18.631Z,99254.72
2023-04-14T21:41:07.845Z,99244.06
2023-04-14T21:43:56.502Z,99243.44
2023-04-14T21:46:45.168Z,99255.38
2023-04-14T21:49:33.766Z,99255.38
2023-04-14T21:52:22.405Z,99251.88
2023-04-14T21:55:12.493Z,99260.47
2023-04-14T21:58:02.466Z,99257.22
2023-04-14T22:00:51.796Z,99250.72
2023-04-14T22:03:41.894Z,99252.34
2023-04-14T22:06:30.657Z,99243.59
2023-04-14T22:09:19.208Z,99243.44
2023-04-14T22:12:09.216Z,99241.28
2023-04-14T22:14:59.092Z,99239.00
2023-04-14T22:17:47.712Z,99243.59
2023-04-14T22:20:36.426Z,99238.56
2023-04-14T22:23:25.114Z,99235.81
2023-04-14T22:26:14.609Z,99228.78
2023-04-14T22:29:05.122Z,99231.44
2023-04-14T22:31:53.817Z,99221.94
2023-04-14T22:34:42.460Z,99217.53
2023-04-14T22:37:31.267Z,99223.72
2023-04-14T22:40:19.931Z,99221.91
2023-04-14T22:43:09.556Z,99221.06
2023-04-14T22:45:59.515Z,99221.53
2023-04-14T22:48:48.271Z,99218.72
2023-04-14T22:51:37.045Z,99209.97
2023-04-14T22:54:25.670Z,99217.22
2023-04-14T22:57:14.252Z,99207.44
2023-04-14T23:00:08.905Z,99209.81
2023-04-14T23:02:59.747Z,99203.72
2023-04-14T23:05:48.801Z,99203.19
2023-04-14T23:08:37.495Z,99207.06
2023-04-14T23:11:26.120Z,99204.16
2023-04-14T23:14:14.699Z,99209.72
2023-04-14T23:17:04.213Z,99200.88
2023-04-14T23:19:54.761Z,99200.59
2023-04-14T23:22:43.567Z,99195.22
2023-04-14T23:25:32.256Z,99199.00
2023-04-14T23:28:20.848Z,99200.72
2023-04-14T23:31:09.451Z,99195.22
2023-04-14T23:34:01.572Z,99193.38
2023-04-14T23:36:51.601Z,99185.88
2023-04-14T23:39:40.664Z,99184.03
2023-04-14T23:42:29.259Z,99178.84
2023-04-14T23:45:17.944Z,99186.84
2023-04-14T23:48:07.446Z,99172.63
2023-04-14T23:51:03.396Z,99166.72
2023-04-14T23:54:06.568Z,99170.69
2023-04-14T23:56:55.264Z,99161.06
2023-04-14T23:59:44.194Z,99168.38
